createdAt,value
2023-05-05T00:01:57.320Z,100609.92
2023-05-05T00:04:24.787Z,100611.44
2023-05-05T00:06:51.715Z,100607.05
2023-05-05T00:09:18.574Z,100605.44
2023-05-05T00:11:45.342Z,100605.16
2023-05-05T00:14:12.095Z,100601.20
2023-05-05T00:16:38.849Z,100598.36
2023-05-05T00:19:05.839Z,100601.20
2023-05-05T00:21:32.677Z,100607.42
2023-05-05T00:23:59.425Z,100614.76
2023-05-05T00:26:26.179Z,100621.92
2023-05-05T00:28:53.329Z,100615.46
2023-05-05T00:31:20.062Z,100613.16
2023-05-05T00:33:46.928Z,100616.94
2023-05-05T00:36:14.785Z,100614.05
2023-05-05T00:38:41.609Z,100617.08
2023-05-05T00:41:08.637Z,100623.01
2023-05-05T00:43:36.169Z,100623.14
2023-05-05T00:46:18.326Z,100626.98
2023-05-05T00:48:45.156Z,100627.40
2023-05-05T00:51:12.995Z,100631.04
2023-05-05T00:53:43.033Z,100627.55
2023-05-05T00:56:09.853Z,100632.20
2023-05-05T00:58:36.692Z,100634.16
2023-05-05T01:01:03.449Z,100632.10
2023-05-05T01:03:30.270Z,100627.05
2023-05-05T01:06:06.287Z,100625.17
2023-05-05T01:08:49.501Z,100621.23
2023-05-05T01:11:31.147Z,100618.27
2023-05-05T01:14:01.133Z,100623.61
2023-05-05T01:16:29.893Z,100629.85
2023-05-05T01:18:58.630Z,100624.80
2023-05-05T01:21:43.342Z,100622.38
2023-05-05T01:24:11.714Z,100630.03
2023-05-05T01:27:07.738Z,100627.77
2023-05-05T01:29:40.568Z,100623.42
2023-05-05T01:32:15.004Z,100626.45
2023-05-05T01:34:51.448Z,100624.02
2023-05-05T01:37:36.997Z,100628.89
2023-05-05T01:40:06.409Z,100634.55
2023-05-05T01:42:34.197Z,100630.04
2023-05-05T01:45:01.549Z,100627.07
2023-05-05T01:47:28.440Z,100625.20
2023-05-05T01:49:55.353Z,100625.67
2023-05-05T01:52:22.140Z,100625.27
2023-05-05T01:54:48.829Z,100623.25
2023-05-05T01:57:15.622Z,100622.30
2023-05-05T01:59:42.574Z,100620.14
2023-05-05T02:02:10.774Z,100621.27
2023-05-05T02:04:41.409Z,100624.98
2023-05-05T02:07:08.358Z,100625.77
2023-05-05T02:09:35.322Z,100627.95
2023-05-05T02:12:02.493Z,100627.27
2023-05-05T02:14:29.634Z,100628.27
2023-05-05T02:16:56.919Z,100627.45
2023-05-05T02:19:28.062Z,100635.08
2023-05-05T02:21:54.795Z,100638.02
2023-05-05T02:24:21.591Z,100632.19
2023-05-05T02:26:49.413Z,100633.77
2023-05-05T02:29:21.149Z,100633.95
2023-05-05T02:31:50.503Z,100636.75
2023-05-05T02:34:25.582Z,100636.49
2023-05-05T02:36:54.645Z,100634.38
2023-05-05T02:39:32.171Z,100638.98
2023-05-05T02:42:03.130Z,100634.70
2023-05-05T02:44:31.905Z,100631.60
2023-05-05T02:46:59.100Z,100628.45
2023-05-05T02:49:26.285Z,100623.34
2023-05-05T02:51:58.094Z,100620.55
2023-05-05T02:54:26.256Z,100618.30
2023-05-05T02:56:53.902Z,100617.58
2023-05-05T02:59:42.318Z,100613.52
2023-05-05T03:02:38.364Z,100619.19
2023-05-05T03:05:32.380Z,100622.02
2023-05-05T03:08:04.585Z,100629.54
2023-05-05T03:10:36.490Z,100630.73
2023-05-05T03:13:03.308Z,100629.77
2023-05-05T03:15:41.482Z,100634.20
2023-05-05T03:18:09.054Z,100631.19
2023-05-05T03:20:36.862Z,100630.95
2023-05-05T03:23:07.753Z,100631.69
2023-05-05T03:25:49.252Z,100633.33
2023-05-05T03:28:27.393Z,100636.41
2023-05-05T03:30:54.984Z,100638.31
2023-05-05T03:33:22.560Z,100640.89
2023-05-05T03:35:50.176Z,100648.61
2023-05-05T03:38:17.909Z,100646.80
2023-05-05T03:40:45.623Z,100647.98
2023-05-05T03:43:15.705Z,100645.40
2023-05-05T03:45:43.131Z,100641.74
2023-05-05T03:48:11.021Z,100646.20
2023-05-05T03:50:38.749Z,100644.50
2023-05-05T03:53:06.114Z,100639.23
2023-05-05T03:55:33.442Z,100639.44
2023-05-05T03:58:00.495Z,100646.73
2023-05-05T04:00:27.654Z,100647.70
2023-05-05T04:02:55.399Z,100654.10
2023-05-05T04:05:23.215Z,100659.28
2023-05-05T04:07:53.139Z,100657.98
2023-05-05T04:10:20.093Z,100656.48
2023-05-05T04:12:46.858Z,100661.70
2023-05-05T04:15:13.623Z,100654.10
2023-05-05T04:17:40.877Z,100650.16
2023-05-05T04:20:09.704Z,100641.43
2023-05-05T04:22:36.873Z,100635.73
2023-05-05T04:25:04.908Z,100633.94
2023-05-05T04:27:31.679Z,100637.83
2023-05-05T04:29:59.079Z,100644.47
2023-05-05T04:32:26.129Z,100651.46
2023-05-05T04:34:53.769Z,100655.65
2023-05-05T04:37:20.849Z,100663.38
2023-05-05T04:39:48.097Z,100666.02
2023-05-05T04:42:14.858Z,100667.87
2023-05-05T04:44:41.608Z,100666.92
2023-05-05T04:47:08.720Z,100667.38
2023-05-05T04:49:36.010Z,100666.52
2023-05-05T04:52:03.164Z,100669.67
2023-05-05T04:54:30.072Z,100673.64
2023-05-05T04:56:57.739Z,100671.64
2023-05-05T04:59:24.570Z,100676.75
2023-05-05T05:01:51.517Z,100682.45
2023-05-05T05:04:18.860Z,100682.59
2023-05-05T05:06:46.157Z,100681.19
2023-05-05T05:09:13.178Z,100679.86
2023-05-05T05:11:39.959Z,100679.42
2023-05-05T05:14:06.959Z,100678.65
2023-05-05T05:16:33.956Z,100679.02
2023-05-05T05:19:01.772Z,100682.27
2023-05-05T05:21:29.855Z,100687.46
2023-05-05T05:23:56.561Z,100685.73
2023-05-05T05:26:24.337Z,100689.48
2023-05-05T05:28:51.579Z,100694.23
2023-05-05T05:31:18.871Z,100697.84
2023-05-05T05:33:46.247Z,100702.39
2023-05-05T05:36:13.521Z,100700.11
2023-05-05T05:38:40.395Z,100700.35
2023-05-05T05:41:07.850Z,100697.88
2023-05-05T05:43:35.299Z,100698.60
2023-05-05T05:46:03.260Z,100699.38
2023-05-05T05:48:30.301Z,100699.77
2023-05-05T05:50:57.846Z,100695.91
2023-05-05T05:53:24.675Z,100698.52
2023-05-05T05:55:52.225Z,100701.40
2023-05-05T05:58:19.547Z,100705.50
2023-05-05T06:00:47.785Z,100704.02
2023-05-05T06:03:14.841Z,100702.69
2023-05-05T06:05:41.918Z,100702.11
2023-05-05T06:08:09.251Z,100698.94
2023-05-05T06:10:40.050Z,100701.95
2023-05-05T06:13:10.205Z,100700.73
2023-05-05T06:15:39.776Z,100694.02
2023-05-05T06:18:06.906Z,100693.95
2023-05-05T06:20:33.665Z,100694.78
2023-05-05T06:23:00.429Z,100693.44
2023-05-05T06:25:28.517Z,100693.77
2023-05-05T06:27:55.256Z,100694.66
2023-05-05T06:30:21.963Z,100693.52
2023-05-05T06:32:48.761Z,100684.20
2023-05-05T06:35:15.604Z,100689.41
2023-05-05T06:37:42.446Z,100690.41
2023-05-05T06:40:10.561Z,100692.02
2023-05-05T06:42:37.611Z,100686.33
2023-05-05T06:45:06.068Z,100688.75
2023-05-05T06:47:32.772Z,100686.67
2023-05-05T06:50:00.844Z,100688.98
2023-05-05T06:52:27.503Z,100688.04
2023-05-05T06:54:54.229Z,100687.60
2023-05-05T06:57:21.274Z,100687.13
2023-05-05T06:59:48.206Z,100686.28
2023-05-05T07:02:14.993Z,100683.39
2023-05-05T07:04:42.680Z,100686.27
2023-05-05T07:07:09.439Z,100684.55
2023-05-05T07:09:36.377Z,100685.88
2023-05-05T07:12:03.800Z,100688.08
2023-05-05T07:14:30.678Z,100690.98
2023-05-05T07:16:57.830Z,100694.66
2023-05-05T07:19:24.759Z,100698.75
2023-05-05T07:21:52.070Z,100699.46
2023-05-05T07:24:18.919Z,100700.45
2023-05-05T07:26:45.693Z,100693.77
2023-05-05T07:29:12.435Z,100689.82
2023-05-05T07:31:39.232Z,100691.15
2023-05-05T07:34:05.951Z,100690.28
2023-05-05T07:36:33.005Z,100684.95
2023-05-05T07:39:00.582Z,100678.80
2023-05-05T07:41:27.487Z,100673.49
2023-05-05T07:43:54.323Z,100675.91
2023-05-05T07:46:21.118Z,100677.21
2023-05-05T07:48:47.933Z,100679.04
2023-05-05T07:51:14.724Z,100681.58
2023-05-05T07:53:41.475Z,100675.37
2023-05-05T07:56:09.076Z,100676.45
2023-05-05T07:58:35.924Z,100676.33
2023-05-05T08:01:02.879Z,100679.32
2023-05-05T08:03:29.797Z,100680.02
2023-05-05T08:05:57.061Z,100681.70
2023-05-05T08:08:25.040Z,100684.64
2023-05-05T08:10:53.298Z,100684.77
2023-05-05T08:13:20.454Z,100683.27
2023-05-05T08:15:47.430Z,100686.52
2023-05-05T08:18:14.517Z,100680.61
2023-05-05T08:20:41.451Z,100682.98
2023-05-05T08:23:08.198Z,100680.26
2023-05-05T08:25:35.004Z,100678.04
2023-05-05T08:28:01.782Z,100674.70
2023-05-05T08:30:28.969Z,100674.58
2023-05-05T08:32:55.864Z,100672.18
2023-05-05T08:35:22.830Z,100678.77
2023-05-05T08:37:51.159Z,100680.16
2023-05-05T08:40:18.117Z,100683.11
2023-05-05T08:42:45.864Z,100686.29
2023-05-05T08:45:13.063Z,100687.05
2023-05-05T08:47:40.092Z,100679.81
2023-05-05T08:50:08.309Z,100679.01
2023-05-05T08:52:44.322Z,100680.59
2023-05-05T08:55:15.571Z,100682.23
2023-05-05T08:57:53.037Z,100674.73
2023-05-05T09:00:20.165Z,100671.70
2023-05-05T09:02:47.299Z,100666.88
2023-05-05T09:05:14.283Z,100667.00
2023-05-05T09:07:44.110Z,100668.35
2023-05-05T09:10:11.762Z,100666.23
2023-05-05T09:12:41.654Z,100673.48
2023-05-05T09:15:12.621Z,100666.21
2023-05-05T09:17:39.640Z,100665.42
2023-05-05T09:20:13.982Z,100671.09
2023-05-05T09:22:45.049Z,100670.13
2023-05-05T09:25:13.286Z,100671.31
2023-05-05T09:27:46.101Z,100672.61
2023-05-05T09:30:17.432Z,100667.84
2023-05-05T09:32:48.996Z,100659.52
2023-05-05T09:35:16.379Z,100651.73
2023-05-05T09:37:43.169Z,100654.26
2023-05-05T09:40:10.560Z,100656.65
2023-05-05T09:42:38.036Z,100657.39
2023-05-05T09:45:25.773Z,100656.16
2023-05-05T09:47:56.708Z,100647.05
2023-05-05T09:50:30.443Z,100646.05
2023-05-05T09:53:01.572Z,100651.32
2023-05-05T09:55:29.044Z,100646.30
2023-05-05T09:57:55.825Z,100652.66
2023-05-05T10:00:39.681Z,100652.74
2023-05-05T10:03:06.873Z,100647.28
2023-05-05T10:05:33.773Z,100643.65
2023-05-05T10:08:12.532Z,100648.95
2023-05-05T10:10:54.754Z,100644.02
2023-05-05T10:13:24.188Z,100641.11
2023-05-05T10:15:55.974Z,100643.02
2023-05-05T10:18:27.941Z,100639.66
2023-05-05T10:21:04.157Z,100640.26
2023-05-05T10:23:50.438Z,100636.38
2023-05-05T10:26:17.394Z,100632.07
2023-05-05T10:30:49.815Z,100632.27
2023-05-05T10:33:30.995Z,100629.28
2023-05-05T10:36:01.405Z,100627.78
2023-05-05T10:38:29.883Z,100624.17
2023-05-05T10:40:57.489Z,100622.92
2023-05-05T10:43:24.283Z,100620.65
2023-05-05T10:45:51.131Z,100623.73
2023-05-05T10:48:25.608Z,100627.41
2023-05-05T10:50:54.185Z,100622.02
2023-05-05T10:53:27.991Z,100617.11
2023-05-05T10:56:08.790Z,100611.83
2023-05-05T10:58:47.497Z,100611.27
2023-05-05T11:01:30.536Z,100610.39
2023-05-05T11:04:20.052Z,100607.41
2023-05-05T11:07:11.806Z,100603.56
2023-05-05T11:09:57.939Z,100601.73
2023-05-05T11:12:24.866Z,100597.17
2023-05-05T11:15:27.325Z,100596.98
2023-05-05T11:17:55.065Z,100590.72
2023-05-05T11:20:39.535Z,100592.66
2023-05-05T11:23:06.629Z,100589.06
2023-05-05T11:25:36.679Z,100588.02
2023-05-05T11:28:17.390Z,100586.74
2023-05-05T11:30:57.262Z,100583.55
2023-05-05T11:33:31.575Z,100584.21
2023-05-05T11:36:04.226Z,100589.71
2023-05-05T11:38:55.759Z,100590.85
2023-05-05T11:41:34.632Z,100590.55
2023-05-05T11:44:17.401Z,100581.53
2023-05-05T11:46:54.140Z,100572.98
2023-05-05T11:49:27.787Z,100570.71
2023-05-05T11:51:57.852Z,100573.27
2023-05-05T11:54:26.381Z,100569.91
2023-05-05T11:56:54.440Z,100568.86
2023-05-05T11:59:21.643Z,100565.37
2023-05-05T12:01:48.535Z,100566.48
2023-05-05T12:04:15.509Z,100566.01
2023-05-05T12:06:42.977Z,100560.27
2023-05-05T12:09:16.434Z,100556.70
2023-05-05T12:11:49.895Z,100556.57
2023-05-05T12:14:16.639Z,100555.65
2023-05-05T12:17:04.989Z,100552.11
2023-05-05T12:19:33.631Z,100543.21
2023-05-05T12:22:04.658Z,100541.95
2023-05-05T12:24:31.618Z,100540.11
2023-05-05T12:27:11.250Z,100542.06
2023-05-05T12:29:38.026Z,100539.68
2023-05-05T12:32:05.128Z,100535.35
2023-05-05T12:34:31.977Z,100530.58
2023-05-05T12:36:58.757Z,100530.46
2023-05-05T12:39:36.276Z,100532.66
2023-05-05T12:42:06.539Z,100528.83
2023-05-05T12:44:37.255Z,100527.00
2023-05-05T12:47:04.890Z,100530.05
2023-05-05T12:49:34.616Z,100526.16
2023-05-05T12:52:01.711Z,100523.56
2023-05-05T12:54:31.513Z,100521.71
2023-05-05T12:56:59.952Z,100519.11
2023-05-05T12:59:27.621Z,100511.72
2023-05-05T13:01:55.544Z,100515.38
2023-05-05T13:04:23.532Z,100515.15
2023-05-05T13:07:07.334Z,100515.77
2023-05-05T13:09:34.750Z,100519.52
2023-05-05T13:12:04.618Z,100517.13
2023-05-05T13:14:31.931Z,100518.00
2023-05-05T13:16:58.888Z,100516.19
2023-05-05T13:19:25.779Z,100518.75
2023-05-05T13:21:52.748Z,100518.61
2023-05-05T13:24:34.326Z,100517.48
2023-05-05T13:27:04.177Z,100517.23
2023-05-05T13:29:33.964Z,100515.92
2023-05-05T13:32:01.150Z,100517.05
2023-05-05T13:34:28.917Z,100515.20
2023-05-05T13:36:55.973Z,100512.38
2023-05-05T13:39:22.837Z,100511.27
2023-05-05T13:41:49.577Z,100512.76
2023-05-05T13:44:16.311Z,100512.35
2023-05-05T13:46:43.157Z,100508.45
2023-05-05T13:49:09.939Z,100506.58
2023-05-05T13:51:38.239Z,100502.88
2023-05-05T13:54:05.966Z,100496.56
2023-05-05T13:56:33.322Z,100497.83
2023-05-05T13:59:00.138Z,100501.92
2023-05-05T14:01:27.599Z,100505.50
2023-05-05T14:03:55.559Z,100500.95
2023-05-05T14:06:24.092Z,100502.45
2023-05-05T14:08:51.712Z,100497.61
2023-05-05T14:11:20.640Z,100492.73
2023-05-05T14:13:49.154Z,100487.91
2023-05-05T14:16:16.074Z,100491.29
2023-05-05T14:18:43.071Z,100488.36
2023-05-05T14:21:09.828Z,100488.52
2023-05-05T14:23:36.566Z,100486.92
2023-05-05T14:26:03.363Z,100486.77
2023-05-05T14:28:30.134Z,100490.36
2023-05-05T14:30:57.007Z,100489.50
2023-05-05T14:33:23.790Z,100486.55
2023-05-05T14:35:53.481Z,100485.60
2023-05-05T14:38:20.353Z,100484.83
2023-05-05T14:40:47.165Z,100476.89
2023-05-05T14:43:13.875Z,100481.09
2023-05-05T14:45:41.465Z,100483.51
2023-05-05T14:48:08.324Z,100483.16
2023-05-05T14:50:35.148Z,100482.25
2023-05-05T14:53:01.848Z,100475.61
2023-05-05T14:55:28.927Z,100479.40
2023-05-05T14:57:55.792Z,100480.30
2023-05-05T15:00:22.908Z,100480.12
2023-05-05T15:02:49.783Z,100486.38
2023-05-05T15:05:16.772Z,100481.63
2023-05-05T15:07:43.574Z,100482.11
2023-05-05T15:10:10.861Z,100485.21
2023-05-05T15:12:37.650Z,100487.98
2023-05-05T15:15:04.825Z,100490.17
2023-05-05T15:17:31.993Z,100488.88
2023-05-05T15:19:58.811Z,100490.15
2023-05-05T15:22:26.075Z,100491.57
2023-05-05T15:24:53.223Z,100493.57
2023-05-05T15:27:20.048Z,100488.58
2023-05-05T15:29:46.989Z,100492.36
2023-05-05T15:32:13.731Z,100494.75
2023-05-05T15:34:40.823Z,100488.41
2023-05-05T15:37:07.641Z,100494.71
2023-05-05T15:39:34.454Z,100492.83
2023-05-05T15:42:05.033Z,100495.37
2023-05-05T15:44:31.799Z,100491.04
2023-05-05T15:46:58.637Z,100492.64
2023-05-05T15:49:25.461Z,100498.55
2023-05-05T15:51:52.373Z,100496.23
2023-05-05T15:54:20.864Z,100500.70
2023-05-05T15:56:47.564Z,100507.21
2023-05-05T15:59:14.356Z,100506.60
2023-05-05T16:01:41.643Z,100506.14
2023-05-05T16:04:08.420Z,100506.84
2023-05-05T16:06:35.118Z,100504.98
2023-05-05T16:09:01.936Z,100504.02
2023-05-05T16:11:31.632Z,100503.84
2023-05-05T16:13:58.377Z,100505.47
2023-05-05T16:16:25.138Z,100506.94
2023-05-05T16:18:51.918Z,100507.89
2023-05-05T16:21:18.680Z,100511.08
2023-05-05T16:23:46.608Z,100515.83
2023-05-05T16:26:13.382Z,100515.25
2023-05-05T16:28:40.182Z,100520.70
2023-05-05T16:31:07.018Z,100519.76
2023-05-05T16:33:36.056Z,100519.34
2023-05-05T16:36:02.822Z,100519.98
2023-05-05T16:38:29.576Z,100520.27
2023-05-05T16:40:56.447Z,100524.55
2023-05-05T16:43:23.230Z,100521.98
2023-05-05T16:45:49.991Z,100523.40
2023-05-05T16:48:18.462Z,100520.84
2023-05-05T16:50:45.298Z,100522.39
2023-05-05T16:53:12.139Z,100529.19
2023-05-05T16:55:38.870Z,100528.33
2023-05-05T16:58:05.677Z,100529.84
2023-05-05T17:00:32.477Z,100528.33
2023-05-05T17:02:59.283Z,100532.86
2023-05-05T17:05:26.951Z,100531.23
2023-05-05T17:07:54.227Z,100531.29
2023-05-05T17:10:21.083Z,100533.34
2023-05-05T17:12:48.242Z,100539.17
2023-05-05T17:15:16.093Z,100537.92
2023-05-05T17:17:43.253Z,100541.69
2023-05-05T17:20:11.116Z,100541.58
2023-05-05T17:22:38.056Z,100543.26
2023-05-05T17:25:05.319Z,100542.07
2023-05-05T17:27:32.104Z,100541.64
2023-05-05T17:29:59.091Z,100540.33
2023-05-05T17:32:26.146Z,100540.52
2023-05-05T17:34:53.029Z,100540.17
2023-05-05T17:37:19.988Z,100545.98
2023-05-05T17:39:46.695Z,100548.46
2023-05-05T17:42:13.527Z,100548.55
2023-05-05T17:44:41.274Z,100548.56
2023-05-05T17:47:08.518Z,100551.27
2023-05-05T17:49:35.280Z,100555.86
2023-05-05T17:52:02.205Z,100564.54
2023-05-05T17:54:29.148Z,100563.90
2023-05-05T17:56:55.870Z,100564.28
2023-05-05T17:59:22.848Z,100565.42
2023-05-05T18:01:49.648Z,100569.45
2023-05-05T18:04:16.761Z,100569.17
2023-05-05T18:06:47.267Z,100571.59
2023-05-05T18:09:14.193Z,100574.66
2023-05-05T18:11:42.234Z,100580.41
2023-05-05T18:14:10.826Z,100582.13
2023-05-05T18:16:37.594Z,100583.89
2023-05-05T18:19:04.450Z,100589.30
2023-05-05T18:21:32.070Z,100586.94
2023-05-05T18:24:07.668Z,100593.61
2023-05-05T18:26:50.208Z,100592.36
2023-05-05T18:29:18.039Z,100590.08
2023-05-05T18:31:46.068Z,100592.82
2023-05-05T18:34:12.945Z,100588.48
2023-05-05T18:36:39.683Z,100590.57
2023-05-05T18:39:06.432Z,100588.24
2023-05-05T18:41:33.221Z,100592.94
2023-05-05T18:43:59.965Z,100595.98
2023-05-05T18:46:26.824Z,100598.83
2023-05-05T18:48:53.766Z,100601.83
2023-05-05T18:51:20.669Z,100602.77
2023-05-05T18:53:47.393Z,100601.92
2023-05-05T18:56:14.197Z,100601.83
2023-05-05T18:58:41.370Z,100602.54
2023-05-05T19:01:08.112Z,100602.49
2023-05-05T19:03:34.921Z,100603.70
2023-05-05T19:06:08.381Z,100602.91
2023-05-05T19:08:35.251Z,100600.19
2023-05-05T19:11:02.006Z,100601.02
2023-05-05T19:13:28.945Z,100601.34
2023-05-05T19:15:57.258Z,100603.46
2023-05-05T19:18:24.319Z,100600.89
2023-05-05T19:20:51.021Z,100604.40
2023-05-05T19:23:17.752Z,100608.63
2023-05-05T19:25:46.470Z,100610.79
2023-05-05T19:28:13.250Z,100607.23
2023-05-05T19:30:40.047Z,100612.73
2023-05-05T19:33:06.945Z,100615.33
2023-05-05T19:35:33.748Z,100612.02
2023-05-05T19:38:00.763Z,100612.16
2023-05-05T19:40:27.899Z,100614.73
2023-05-05T19:42:54.749Z,100612.39
2023-05-05T19:45:21.803Z,100617.23
2023-05-05T19:47:48.629Z,100609.38
2023-05-05T19:50:16.118Z,100609.55
2023-05-05T19:52:42.856Z,100611.27
2023-05-05T19:57:54.968Z,100612.14
2023-05-05T20:00:21.728Z,100616.14
2023-05-05T20:02:49.276Z,100616.98
2023-05-05T20:05:17.465Z,100624.70
2023-05-05T20:07:46.393Z,100626.64
2023-05-05T20:10:13.573Z,100630.27
2023-05-05T20:12:47.738Z,100632.50
2023-05-05T20:15:18.637Z,100632.73
2023-05-05T20:17:46.949Z,100633.83
2023-05-05T20:20:18.918Z,100636.61
2023-05-05T20:22:46.264Z,100639.38
2023-05-05T20:25:14.699Z,100643.92
2023-05-05T20:27:41.475Z,100641.04
2023-05-05T20:30:18.198Z,100642.14
2023-05-05T20:32:45.061Z,100642.09
2023-05-05T20:35:12.921Z,100642.63
2023-05-05T20:37:39.712Z,100646.70
2023-05-05T20:40:07.667Z,100641.89
2023-05-05T20:42:34.756Z,100642.13
2023-05-05T20:45:02.116Z,100641.13
2023-05-05T20:47:34.306Z,100637.86
2023-05-05T20:50:01.587Z,100635.20
2023-05-05T20:52:28.729Z,100635.70
2023-05-05T20:54:55.508Z,100639.33
2023-05-05T20:57:22.282Z,100650.52
2023-05-05T20:59:49.154Z,100655.39
2023-05-05T21:02:16.033Z,100659.14
2023-05-05T21:04:42.842Z,100658.20
2023-05-05T21:07:09.574Z,100661.41
2023-05-05T21:09:36.529Z,100658.36
2023-05-05T21:12:03.332Z,100664.91
2023-05-05T21:14:30.160Z,100664.74
2023-05-05T21:16:56.992Z,100669.20
2023-05-05T21:19:23.740Z,100669.09
2023-05-05T21:21:51.274Z,100674.10
2023-05-05T21:24:18.025Z,100671.96
2023-05-05T21:26:45.180Z,100676.17
2023-05-05T21:29:12.092Z,100682.77
2023-05-05T21:31:39.059Z,100684.41
2023-05-05T21:34:05.846Z,100687.08
2023-05-05T21:36:33.914Z,100690.18
2023-05-05T21:39:00.966Z,100689.60
2023-05-05T21:41:28.320Z,100689.95
2023-05-05T21:43:58.200Z,100695.71
2023-05-05T21:46:25.001Z,100698.61
2023-05-05T21:48:51.698Z,100700.30
2023-05-05T21:51:19.722Z,100696.27
2023-05-05T21:53:46.466Z,100695.48
2023-05-05T21:56:13.243Z,100695.22
2023-05-05T21:58:41.188Z,100697.50
2023-05-05T22:01:08.031Z,100692.48
2023-05-05T22:03:35.356Z,100694.98
2023-05-05T22:06:02.336Z,100701.53
2023-05-05T22:08:29.297Z,100703.26
2023-05-05T22:10:56.021Z,100707.64
2023-05-05T22:13:22.890Z,100713.19
2023-05-05T22:15:50.242Z,100712.40
2023-05-05T22:18:17.126Z,100711.09
2023-05-05T22:20:44.056Z,100713.84
2023-05-05T22:23:14.175Z,100717.14
2023-05-05T22:25:41.153Z,100714.27
2023-05-05T22:28:07.875Z,100712.31
2023-05-05T22:30:34.620Z,100719.05
2023-05-05T22:33:01.418Z,100717.35
2023-05-05T22:35:28.244Z,100718.27
2023-05-05T22:37:55.183Z,100718.66
2023-05-05T22:40:22.003Z,100720.13
2023-05-05T22:42:48.829Z,100724.06
2023-05-05T22:47:41.839Z,100743.34
2023-05-05T22:50:09.518Z,100741.48
2023-05-05T22:52:36.724Z,100740.38
2023-05-05T22:55:03.758Z,100731.41
2023-05-05T22:57:30.716Z,100729.19
2023-05-05T22:59:57.669Z,100725.07
2023-05-05T23:02:26.606Z,100728.73
2023-05-05T23:04:53.566Z,100736.64
2023-05-05T23:07:20.350Z,100738.64
2023-05-05T23:09:47.360Z,100739.71
2023-05-05T23:12:14.126Z,100739.38
2023-05-05T23:14:41.087Z,100737.94
2023-05-05T23:17:07.838Z,100736.91
2023-05-05T23:19:34.874Z,100735.17
2023-05-05T23:22:02.315Z,100732.17
2023-05-05T23:24:29.568Z,100732.11
2023-05-05T23:26:58.764Z,100733.21
2023-05-05T23:29:25.469Z,100731.85
2023-05-05T23:31:52.694Z,100735.36
2023-05-05T23:34:19.502Z,100739.98
2023-05-05T23:36:46.865Z,100747.98
2023-05-05T23:39:13.629Z,100749.08
2023-05-05T23:41:40.440Z,100753.08
2023-05-05T23:44:07.208Z,100751.20
2023-05-05T23:46:34.020Z,100755.52
2023-05-05T23:49:00.982Z,100759.84
2023-05-05T23:51:28.025Z,100753.86
2023-05-05T23:53:56.495Z,100751.69
2023-05-05T23:56:24.446Z,100750.33
2023-05-05T23:58:52.559Z,100754.38
